sensor_id;sensor_type;location;lat;lon;timestamp;P1;durP1;ratioP1;P2;durP2;ratioP2
18210;SDS011;9231;48.852;9.882;2023-07-28T00:02:27;4.57;;;2.90;;
18210;SDS011;9231;48.852;9.882;2023-07-28T00:04:54;6.03;;;3.27;;
18210;SDS011;9231;48.852;9.882;2023-07-28T00:07:20;2.70;;;2.50;;
18210;SDS011;9231;48.852;9.882;2023-07-28T00:09:47;3.13;;;2.83;;
18210;SDS011;9231;48.852;9.882;2023-07-28T00:12:13;3.70;;;2.60;;
18210;SDS011;9231;48.852;9.882;2023-07-28T00:14:43;4.67;;;3.00;;
18210;SDS011;9231;48.852;9.882;2023-07-28T00:17:09;2.90;;;2.60;;
18210;SDS011;9231;48.852;9.882;2023-07-28T00:19:37;3.00;;;2.70;;
18210;SDS011;9231;48.852;9.882;2023-07-28T00:22:07;4.03;;;3.00;;
18210;SDS011;9231;48.852;9.882;2023-07-28T00:24:33;3.07;;;2.60;;
18210;SDS011;9231;48.852;9.882;2023-07-28T00:27:02;4.23;;;2.80;;
18210;SDS011;9231;48.852;9.882;2023-07-28T00:29:29;3.47;;;2.73;;
18210;SDS011;9231;48.852;9.882;2023-07-28T00:31:55;2.40;;;2.20;;
18210;SDS011;9231;48.852;9.882;2023-07-28T00:34:21;3.37;;;2.70;;
18210;SDS011;9231;48.852;9.882;2023-07-28T00:36:49;2.97;;;2.77;;
18210;SDS011;9231;48.852;9.882;2023-07-28T00:39:16;4.83;;;2.73;;
18210;SDS011;9231;48.852;9.882;2023-07-28T00:41:42;5.67;;;3.10;;
18210;SDS011;9231;48.852;9.882;2023-07-28T00:44:09;3.27;;;2.83;;
18210;SDS011;9231;48.852;9.882;2023-07-28T00:46:35;3.37;;;2.70;;
18210;SDS011;9231;48.852;9.882;2023-07-28T00:49:02;3.07;;;2.77;;
18210;SDS011;9231;48.852;9.882;2023-07-28T00:51:29;4.93;;;2.77;;
18210;SDS011;9231;48.852;9.882;2023-07-28T00:53:58;2.77;;;2.57;;
18210;SDS011;9231;48.852;9.882;2023-07-28T00:56:27;4.57;;;3.00;;
18210;SDS011;9231;48.852;9.882;2023-07-28T00:58:53;3.50;;;2.30;;
18210;SDS011;9231;48.852;9.882;2023-07-28T01:01:20;3.10;;;2.40;;
18210;SDS011;9231;48.852;9.882;2023-07-28T01:03:46;4.10;;;2.60;;
18210;SDS011;9231;48.852;9.882;2023-07-28T01:06:14;3.90;;;2.43;;
18210;SDS011;9231;48.852;9.882;2023-07-28T01:08:49;4.70;;;2.33;;
18210;SDS011;9231;48.852;9.882;2023-07-28T01:11:17;3.53;;;2.33;;
18210;SDS011;9231;48.852;9.882;2023-07-28T01:13:43;5.83;;;2.67;;
18210;SDS011;9231;48.852;9.882;2023-07-28T01:16:10;2.90;;;2.43;;
18210;SDS011;9231;48.852;9.882;2023-07-28T01:18:36;3.50;;;2.57;;
18210;SDS011;9231;48.852;9.882;2023-07-28T01:21:03;2.53;;;2.33;;
18210;SDS011;9231;48.852;9.882;2023-07-28T01:23:37;2.37;;;2.00;;
18210;SDS011;9231;48.852;9.882;2023-07-28T01:26:08;3.53;;;2.37;;
18210;SDS011;9231;48.852;9.882;2023-07-28T01:28:36;3.50;;;2.50;;
18210;SDS011;9231;48.852;9.882;2023-07-28T01:31:04;3.17;;;2.53;;
18210;SDS011;9231;48.852;9.882;2023-07-28T01:33:30;4.50;;;2.60;;
18210;SDS011;9231;48.852;9.882;2023-07-28T01:35:57;3.17;;;2.80;;
18210;SDS011;9231;48.852;9.882;2023-07-28T01:38:25;3.67;;;2.93;;
18210;SDS011;9231;48.852;9.882;2023-07-28T01:40:52;3.40;;;2.43;;
18210;SDS011;9231;48.852;9.882;2023-07-28T01:43:19;3.47;;;2.80;;
18210;SDS011;9231;48.852;9.882;2023-07-28T01:45:46;4.13;;;2.73;;
18210;SDS011;9231;48.852;9.882;2023-07-28T01:48:13;3.60;;;2.50;;
18210;SDS011;9231;48.852;9.882;2023-07-28T01:50:40;3.00;;;2.50;;
18210;SDS011;9231;48.852;9.882;2023-07-28T01:53:06;4.27;;;2.70;;
18210;SDS011;9231;48.852;9.882;2023-07-28T01:55:33;4.27;;;2.97;;
18210;SDS011;9231;48.852;9.882;2023-07-28T01:58:02;2.53;;;2.33;;
18210;SDS011;9231;48.852;9.882;2023-07-28T02:00:29;2.80;;;2.43;;
18210;SDS011;9231;48.852;9.882;2023-07-28T02:02:56;3.13;;;2.83;;
18210;SDS011;9231;48.852;9.882;2023-07-28T02:05:26;6.00;;;2.33;;
18210;SDS011;9231;48.852;9.882;2023-07-28T02:07:53;3.93;;;2.73;;
18210;SDS011;9231;48.852;9.882;2023-07-28T02:10:19;4.27;;;2.50;;
18210;SDS011;9231;48.852;9.882;2023-07-28T02:12:46;2.87;;;2.20;;
18210;SDS011;9231;48.852;9.882;2023-07-28T02:15:13;4.57;;;2.73;;
18210;SDS011;9231;48.852;9.882;2023-07-28T02:17:40;3.53;;;2.70;;
18210;SDS011;9231;48.852;9.882;2023-07-28T02:20:09;3.30;;;2.40;;
18210;SDS011;9231;48.852;9.882;2023-07-28T02:22:38;3.93;;;2.47;;
18210;SDS011;9231;48.852;9.882;2023-07-28T02:25:04;2.90;;;2.70;;
18210;SDS011;9231;48.852;9.882;2023-07-28T02:27:31;2.97;;;2.40;;
18210;SDS011;9231;48.852;9.882;2023-07-28T02:29:57;2.77;;;2.50;;
18210;SDS011;9231;48.852;9.882;2023-07-28T02:32:24;4.70;;;2.60;;
18210;SDS011;9231;48.852;9.882;2023-07-28T02:34:50;3.07;;;2.27;;
18210;SDS011;9231;48.852;9.882;2023-07-28T02:37:18;4.63;;;2.60;;
18210;SDS011;9231;48.852;9.882;2023-07-28T02:39:44;2.20;;;2.00;;
18210;SDS011;9231;48.852;9.882;2023-07-28T02:42:11;2.53;;;1.93;;
18210;SDS011;9231;48.852;9.882;2023-07-28T02:44:37;2.37;;;1.90;;
18210;SDS011;9231;48.852;9.882;2023-07-28T02:47:04;3.03;;;2.07;;
18210;SDS011;9231;48.852;9.882;2023-07-28T02:49:31;3.67;;;2.03;;
18210;SDS011;9231;48.852;9.882;2023-07-28T02:51:57;2.20;;;2.00;;
18210;SDS011;9231;48.852;9.882;2023-07-28T02:54:25;3.40;;;2.30;;
18210;SDS011;9231;48.852;9.882;2023-07-28T02:56:52;3.70;;;2.20;;
18210;SDS011;9231;48.852;9.882;2023-07-28T02:59:19;2.07;;;1.87;;
18210;SDS011;9231;48.852;9.882;2023-07-28T03:01:45;1.90;;;1.80;;
18210;SDS011;9231;48.852;9.882;2023-07-28T03:04:12;3.77;;;1.80;;
18210;SDS011;9231;48.852;9.882;2023-07-28T03:06:38;2.47;;;1.93;;
18210;SDS011;9231;48.852;9.882;2023-07-28T03:09:05;2.20;;;2.00;;
18210;SDS011;9231;48.852;9.882;2023-07-28T03:11:33;2.77;;;2.03;;
18210;SDS011;9231;48.852;9.882;2023-07-28T03:13:59;3.83;;;2.10;;
18210;SDS011;9231;48.852;9.882;2023-07-28T03:16:25;2.47;;;2.10;;
18210;SDS011;9231;48.852;9.882;2023-07-28T03:18:52;3.83;;;2.00;;
18210;SDS011;9231;48.852;9.882;2023-07-28T03:21:18;2.50;;;1.90;;
18210;SDS011;9231;48.852;9.882;2023-07-28T03:23:45;3.93;;;2.13;;
18210;SDS011;9231;48.852;9.882;2023-07-28T03:26:11;2.60;;;2.23;;
18210;SDS011;9231;48.852;9.882;2023-07-28T03:28:39;2.57;;;2.10;;
18210;SDS011;9231;48.852;9.882;2023-07-28T03:31:05;3.07;;;2.10;;
18210;SDS011;9231;48.852;9.882;2023-07-28T03:33:32;2.77;;;2.20;;
18210;SDS011;9231;48.852;9.882;2023-07-28T03:35:59;2.40;;;2.20;;
18210;SDS011;9231;48.852;9.882;2023-07-28T03:38:25;3.87;;;2.33;;
18210;SDS011;9231;48.852;9.882;2023-07-28T03:40:51;2.40;;;1.90;;
18210;SDS011;9231;48.852;9.882;2023-07-28T03:43:18;4.10;;;2.27;;
18210;SDS011;9231;48.852;9.882;2023-07-28T03:45:46;5.57;;;2.30;;
18210;SDS011;9231;48.852;9.882;2023-07-28T03:48:12;3.07;;;2.10;;
18210;SDS011;9231;48.852;9.882;2023-07-28T03:50:39;2.93;;;2.30;;
18210;SDS011;9231;48.852;9.882;2023-07-28T03:53:05;5.20;;;2.07;;
18210;SDS011;9231;48.852;9.882;2023-07-28T03:55:32;3.90;;;2.10;;
18210;SDS011;9231;48.852;9.882;2023-07-28T03:57:58;2.73;;;2.30;;
18210;SDS011;9231;48.852;9.882;2023-07-28T04:00:25;4.03;;;2.07;;
18210;SDS011;9231;48.852;9.882;2023-07-28T04:02:52;2.33;;;2.10;;
18210;SDS011;9231;48.852;9.882;2023-07-28T04:05:19;3.10;;;2.00;;
18210;SDS011;9231;48.852;9.882;2023-07-28T04:07:45;2.27;;;1.87;;
18210;SDS011;9231;48.852;9.882;2023-07-28T04:10:12;2.93;;;1.87;;
18210;SDS011;9231;48.852;9.882;2023-07-28T04:12:38;4.67;;;2.37;;
18210;SDS011;9231;48.852;9.882;2023-07-28T04:15:05;4.97;;;2.20;;
18210;SDS011;9231;48.852;9.882;2023-07-28T04:17:31;3.03;;;1.80;;
18210;SDS011;9231;48.852;9.882;2023-07-28T04:19:59;3.53;;;1.70;;
18210;SDS011;9231;48.852;9.882;2023-07-28T04:22:26;2.17;;;1.80;;
18210;SDS011;9231;48.852;9.882;2023-07-28T04:24:52;2.90;;;2.00;;
18210;SDS011;9231;48.852;9.882;2023-07-28T04:27:19;3.23;;;2.13;;
18210;SDS011;9231;48.852;9.882;2023-07-28T04:29:46;2.63;;;2.27;;
18210;SDS011;9231;48.852;9.882;2023-07-28T04:32:12;2.10;;;1.83;;
18210;SDS011;9231;48.852;9.882;2023-07-28T04:34:39;2.87;;;2.10;;
18210;SDS011;9231;48.852;9.882;2023-07-28T04:37:07;2.87;;;2.03;;
18210;SDS011;9231;48.852;9.882;2023-07-28T04:39:33;2.50;;;2.10;;
18210;SDS011;9231;48.852;9.882;2023-07-28T04:41:59;4.47;;;2.20;;
18210;SDS011;9231;48.852;9.882;2023-07-28T04:44:26;5.27;;;2.60;;
18210;SDS011;9231;48.852;9.882;2023-07-28T04:46:52;3.83;;;2.00;;
18210;SDS011;9231;48.852;9.882;2023-07-28T04:49:19;2.83;;;2.07;;
18210;SDS011;9231;48.852;9.882;2023-07-28T04:51:46;2.97;;;2.03;;
18210;SDS011;9231;48.852;9.882;2023-07-28T04:54:14;2.53;;;2.20;;
18210;SDS011;9231;48.852;9.882;2023-07-28T04:56:40;4.57;;;2.00;;
18210;SDS011;9231;48.852;9.882;2023-07-28T04:59:07;2.87;;;1.97;;
18210;SDS011;9231;48.852;9.882;2023-07-28T05:01:33;3.90;;;2.23;;
18210;SDS011;9231;48.852;9.882;2023-07-28T05:04:00;4.47;;;2.20;;
18210;SDS011;9231;48.852;9.882;2023-07-28T05:06:26;2.90;;;2.13;;
18210;SDS011;9231;48.852;9.882;2023-07-28T05:08:53;2.10;;;1.90;;
18210;SDS011;9231;48.852;9.882;2023-07-28T05:11:20;2.17;;;1.97;;
18210;SDS011;9231;48.852;9.882;2023-07-28T05:13:47;3.13;;;2.33;;
18210;SDS011;9231;48.852;9.882;2023-07-28T05:16:13;3.83;;;2.43;;
18210;SDS011;9231;48.852;9.882;2023-07-28T05:18:40;3.40;;;2.27;;
18210;SDS011;9231;48.852;9.882;2023-07-28T05:21:09;4.97;;;2.40;;
18210;SDS011;9231;48.852;9.882;2023-07-28T05:23:35;3.53;;;2.60;;
18210;SDS011;9231;48.852;9.882;2023-07-28T05:26:01;3.23;;;2.23;;
18210;SDS011;9231;48.852;9.882;2023-07-28T05:28:31;3.17;;;2.17;;
18210;SDS011;9231;48.852;9.882;2023-07-28T05:31:03;2.97;;;2.30;;
18210;SDS011;9231;48.852;9.882;2023-07-28T05:33:29;2.50;;;2.30;;
18210;SDS011;9231;48.852;9.882;2023-07-28T05:35:58;2.23;;;2.03;;
18210;SDS011;9231;48.852;9.882;2023-07-28T05:38:25;2.90;;;2.60;;
18210;SDS011;9231;48.852;9.882;2023-07-28T05:40:55;3.97;;;2.30;;
18210;SDS011;9231;48.852;9.882;2023-07-28T05:43:22;4.57;;;2.63;;
18210;SDS011;9231;48.852;9.882;2023-07-28T05:45:49;3.60;;;2.60;;
18210;SDS011;9231;48.852;9.882;2023-07-28T05:48:16;3.33;;;2.53;;
18210;SDS011;9231;48.852;9.882;2023-07-28T05:50:42;3.33;;;2.63;;
18210;SDS011;9231;48.852;9.882;2023-07-28T05:53:09;5.03;;;2.67;;
18210;SDS011;9231;48.852;9.882;2023-07-28T05:55:35;2.67;;;2.37;;
18210;SDS011;9231;48.852;9.882;2023-07-28T05:58:02;2.33;;;2.00;;
18210;SDS011;9231;48.852;9.882;2023-07-28T06:00:28;3.47;;;2.67;;
18210;SDS011;9231;48.852;9.882;2023-07-28T06:02:56;5.17;;;2.40;;
18210;SDS011;9231;48.852;9.882;2023-07-28T06:05:22;3.20;;;2.90;;
18210;SDS011;9231;48.852;9.882;2023-07-28T06:07:49;3.53;;;2.80;;
18210;SDS011;9231;48.852;9.882;2023-07-28T06:10:15;5.17;;;2.70;;
18210;SDS011;9231;48.852;9.882;2023-07-28T06:12:42;3.37;;;2.67;;
18210;SDS011;9231;48.852;9.882;2023-07-28T06:15:10;3.47;;;2.53;;
18210;SDS011;9231;48.852;9.882;2023-07-28T06:17:36;4.10;;;3.10;;
18210;SDS011;9231;48.852;9.882;2023-07-28T06:20:04;2.80;;;2.60;;
18210;SDS011;9231;48.852;9.882;2023-07-28T06:22:31;4.13;;;2.87;;
18210;SDS011;9231;48.852;9.882;2023-07-28T06:24:57;4.23;;;2.90;;
18210;SDS011;9231;48.852;9.882;2023-07-28T06:27:24;3.77;;;2.97;;
18210;SDS011;9231;48.852;9.882;2023-07-28T06:29:50;3.97;;;2.63;;
18210;SDS011;9231;48.852;9.882;2023-07-28T06:32:17;4.07;;;2.70;;
18210;SDS011;9231;48.852;9.882;2023-07-28T06:34:45;4.23;;;2.80;;
18210;SDS011;9231;48.852;9.882;2023-07-28T06:37:13;3.70;;;3.00;;
18210;SDS011;9231;48.852;9.882;2023-07-28T06:39:39;4.33;;;2.60;;
18210;SDS011;9231;48.852;9.882;2023-07-28T06:42:06;4.53;;;2.97;;
18210;SDS011;9231;48.852;9.882;2023-07-28T06:44:32;3.70;;;3.00;;
18210;SDS011;9231;48.852;9.882;2023-07-28T06:46:59;3.97;;;2.90;;
18210;SDS011;9231;48.852;9.882;2023-07-28T06:49:25;3.90;;;3.43;;
18210;SDS011;9231;48.852;9.882;2023-07-28T06:51:52;4.30;;;3.60;;
18210;SDS011;9231;48.852;9.882;2023-07-28T06:54:19;3.53;;;3.23;;
18210;SDS011;9231;48.852;9.882;2023-07-28T06:56:46;4.23;;;2.97;;
18210;SDS011;9231;48.852;9.882;2023-07-28T06:59:12;10.00;;;3.73;;
18210;SDS011;9231;48.852;9.882;2023-07-28T07:01:39;6.10;;;3.70;;
18210;SDS011;9231;48.852;9.882;2023-07-28T07:04:05;4.90;;;3.77;;
18210;SDS011;9231;48.852;9.882;2023-07-28T07:06:32;3.93;;;3.47;;
18210;SDS011;9231;48.852;9.882;2023-07-28T07:08:58;5.13;;;3.60;;
18210;SDS011;9231;48.852;9.882;2023-07-28T07:11:26;5.57;;;3.63;;
18210;SDS011;9231;48.852;9.882;2023-07-28T07:13:52;5.27;;;4.00;;
18210;SDS011;9231;48.852;9.882;2023-07-28T07:16:19;3.70;;;3.37;;
18210;SDS011;9231;48.852;9.882;2023-07-28T07:18:46;4.00;;;3.53;;
18210;SDS011;9231;48.852;9.882;2023-07-28T07:21:13;4.20;;;3.80;;
18210;SDS011;9231;48.852;9.882;2023-07-28T07:23:39;4.40;;;3.73;;
18210;SDS011;9231;48.852;9.882;2023-07-28T07:26:05;5.27;;;4.10;;
18210;SDS011;9231;48.852;9.882;2023-07-28T07:28:33;4.90;;;4.10;;
18210;SDS011;9231;48.852;9.882;2023-07-28T07:31:00;5.60;;;4.00;;
18210;SDS011;9231;48.852;9.882;2023-07-28T07:33:27;4.20;;;3.80;;
18210;SDS011;9231;48.852;9.882;2023-07-28T07:35:53;5.27;;;3.80;;
18210;SDS011;9231;48.852;9.882;2023-07-28T07:38:20;4.97;;;4.47;;
18210;SDS011;9231;48.852;9.882;2023-07-28T07:40:46;5.57;;;4.10;;
18210;SDS011;9231;48.852;9.882;2023-07-28T07:43:14;5.53;;;4.47;;
18210;SDS011;9231;48.852;9.882;2023-07-28T07:45:46;4.27;;;3.80;;
18210;SDS011;9231;48.852;9.882;2023-07-28T07:48:15;5.53;;;4.37;;
18210;SDS011;9231;48.852;9.882;2023-07-28T07:50:41;5.13;;;4.17;;
18210;SDS011;9231;48.852;9.882;2023-07-28T07:53:08;4.80;;;4.40;;
18210;SDS011;9231;48.852;9.882;2023-07-28T07:55:35;4.70;;;4.07;;
18210;SDS011;9231;48.852;9.882;2023-07-28T07:58:01;4.17;;;3.77;;
18210;SDS011;9231;48.852;9.882;2023-07-28T08:00:28;5.20;;;4.30;;
18210;SDS011;9231;48.852;9.882;2023-07-28T08:02:56;4.70;;;3.97;;
18210;SDS011;9231;48.852;9.882;2023-07-28T08:05:23;4.40;;;3.80;;
18210;SDS011;9231;48.852;9.882;2023-07-28T08:07:49;6.10;;;3.70;;
18210;SDS011;9231;48.852;9.882;2023-07-28T08:10:16;4.03;;;3.63;;
18210;SDS011;9231;48.852;9.882;2023-07-28T08:12:43;5.40;;;3.80;;
18210;SDS011;9231;48.852;9.882;2023-07-28T08:15:10;3.80;;;3.50;;
18210;SDS011;9231;48.852;9.882;2023-07-28T08:17:36;4.77;;;3.90;;
18210;SDS011;9231;48.852;9.882;2023-07-28T08:20:05;4.35;;;3.60;;
18210;SDS011;9231;48.852;9.882;2023-07-28T08:22:31;4.28;;;3.38;;
18210;SDS011;9231;48.852;9.882;2023-07-28T08:24:58;4.07;;;3.67;;
18210;SDS011;9231;48.852;9.882;2023-07-28T08:27:24;4.07;;;3.63;;
18210;SDS011;9231;48.852;9.882;2023-07-28T08:29:51;4.43;;;4.03;;
18210;SDS011;9231;48.852;9.882;2023-07-28T08:32:17;4.37;;;3.50;;
18210;SDS011;9231;48.852;9.882;2023-07-28T08:34:44;5.60;;;3.80;;
18210;SDS011;9231;48.852;9.882;2023-07-28T08:37:12;3.50;;;3.20;;
18210;SDS011;9231;48.852;9.882;2023-07-28T08:39:38;6.10;;;3.72;;
18210;SDS011;9231;48.852;9.882;2023-07-28T08:42:05;5.45;;;3.80;;
18210;SDS011;9231;48.852;9.882;2023-07-28T08:44:32;5.00;;;3.63;;
18210;SDS011;9231;48.852;9.882;2023-07-28T08:46:59;5.05;;;3.58;;
18210;SDS011;9231;48.852;9.882;2023-07-28T08:49:25;4.40;;;3.70;;
18210;SDS011;9231;48.852;9.882;2023-07-28T08:51:52;5.53;;;4.20;;
18210;SDS011;9231;48.852;9.882;2023-07-28T08:54:25;4.22;;;3.83;;
18210;SDS011;9231;48.852;9.882;2023-07-28T08:56:51;4.75;;;3.97;;
18210;SDS011;9231;48.852;9.882;2023-07-28T08:59:20;6.53;;;4.00;;
18210;SDS011;9231;48.852;9.882;2023-07-28T09:01:47;4.30;;;3.90;;
18210;SDS011;9231;48.852;9.882;2023-07-28T09:04:15;4.40;;;3.77;;
18210;SDS011;9231;48.852;9.882;2023-07-28T09:06:44;4.30;;;3.90;;
18210;SDS011;9231;48.852;9.882;2023-07-28T09:09:11;5.03;;;3.90;;
18210;SDS011;9231;48.852;9.882;2023-07-28T09:11:44;3.83;;;3.43;;
18210;SDS011;9231;48.852;9.882;2023-07-28T09:14:11;4.67;;;3.30;;
18210;SDS011;9231;48.852;9.882;2023-07-28T09:16:38;3.47;;;3.17;;
18210;SDS011;9231;48.852;9.882;2023-07-28T09:19:05;4.07;;;3.50;;
18210;SDS011;9231;48.852;9.882;2023-07-28T09:21:32;4.10;;;3.70;;
18210;SDS011;9231;48.852;9.882;2023-07-28T09:23:59;4.07;;;3.10;;
18210;SDS011;9231;48.852;9.882;2023-07-28T09:26:27;3.80;;;3.10;;
18210;SDS011;9231;48.852;9.882;2023-07-28T09:29:07;3.33;;;3.03;;
18210;SDS011;9231;48.852;9.882;2023-07-28T09:31:36;4.30;;;3.07;;
18210;SDS011;9231;48.852;9.882;2023-07-28T09:34:03;4.47;;;3.30;;
18210;SDS011;9231;48.852;9.882;2023-07-28T09:36:35;3.80;;;3.27;;
18210;SDS011;9231;48.852;9.882;2023-07-28T09:39:03;3.27;;;2.93;;
18210;SDS011;9231;48.852;9.882;2023-07-28T09:41:32;3.83;;;3.40;;
18210;SDS011;9231;48.852;9.882;2023-07-28T09:43:58;3.90;;;3.20;;
18210;SDS011;9231;48.852;9.882;2023-07-28T09:46:28;4.20;;;3.10;;
18210;SDS011;9231;48.852;9.882;2023-07-28T09:48:56;4.60;;;3.00;;
18210;SDS011;9231;48.852;9.882;2023-07-28T09:51:22;4.53;;;3.13;;
18210;SDS011;9231;48.852;9.882;2023-07-28T09:53:53;4.07;;;3.03;;
18210;SDS011;9231;48.852;9.882;2023-07-28T09:56:20;3.53;;;2.80;;
18210;SDS011;9231;48.852;9.882;2023-07-28T09:58:49;3.37;;;2.73;;
18210;SDS011;9231;48.852;9.882;2023-07-28T10:01:16;2.90;;;2.35;;
18210;SDS011;9231;48.852;9.882;2023-07-28T10:03:44;3.60;;;2.92;;
18210;SDS011;9231;48.852;9.882;2023-07-28T10:06:11;2.63;;;2.03;;
18210;SDS011;9231;48.852;9.882;2023-07-28T10:08:40;2.65;;;2.40;;
18210;SDS011;9231;48.852;9.882;2023-07-28T10:11:07;2.92;;;2.50;;
18210;SDS011;9231;48.852;9.882;2023-07-28T10:13:39;2.55;;;2.35;;
18210;SDS011;9231;48.852;9.882;2023-07-28T10:16:07;3.72;;;2.60;;
18210;SDS011;9231;48.852;9.882;2023-07-28T10:18:34;3.30;;;2.13;;
18210;SDS011;9231;48.852;9.882;2023-07-28T10:21:04;2.35;;;2.13;;
18210;SDS011;9231;48.852;9.882;2023-07-28T10:23:33;2.88;;;2.33;;
18210;SDS011;9231;48.852;9.882;2023-07-28T10:26:00;3.78;;;2.13;;
18210;SDS011;9231;48.852;9.882;2023-07-28T10:28:27;2.63;;;2.15;;
18210;SDS011;9231;48.852;9.882;2023-07-28T10:30:56;2.42;;;2.22;;
18210;SDS011;9231;48.852;9.882;2023-07-28T10:33:26;2.10;;;1.90;;
18210;SDS011;9231;48.852;9.882;2023-07-28T10:35:53;3.15;;;2.08;;
18210;SDS011;9231;48.852;9.882;2023-07-28T10:38:29;5.53;;;2.10;;
18210;SDS011;9231;48.852;9.882;2023-07-28T10:41:04;4.05;;;2.10;;
18210;SDS011;9231;48.852;9.882;2023-07-28T10:43:32;2.85;;;1.83;;
18210;SDS011;9231;48.852;9.882;2023-07-28T10:45:58;3.13;;;1.70;;
18210;SDS011;9231;48.852;9.882;2023-07-28T10:48:25;2.72;;;1.75;;
18210;SDS011;9231;48.852;9.882;2023-07-28T10:50:52;3.50;;;1.42;;
18210;SDS011;9231;48.852;9.882;2023-07-28T10:53:18;3.00;;;1.50;;
18210;SDS011;9231;48.852;9.882;2023-07-28T10:55:46;2.28;;;1.88;;
18210;SDS011;9231;48.852;9.882;2023-07-28T10:58:13;2.53;;;1.73;;
18210;SDS011;9231;48.852;9.882;2023-07-28T11:00:39;1.70;;;1.50;;
18210;SDS011;9231;48.852;9.882;2023-07-28T11:03:08;2.28;;;1.42;;
18210;SDS011;9231;48.852;9.882;2023-07-28T11:05:34;1.77;;;1.67;;
18210;SDS011;9231;48.852;9.882;2023-07-28T11:08:01;3.80;;;1.45;;
18210;SDS011;9231;48.852;9.882;2023-07-28T11:10:28;2.40;;;1.67;;
18210;SDS011;9231;48.852;9.882;2023-07-28T11:12:57;2.45;;;1.92;;
18210;SDS011;9231;48.852;9.882;2023-07-28T11:15:24;4.18;;;1.83;;
18210;SDS011;9231;48.852;9.882;2023-07-28T11:17:51;2.42;;;1.67;;
18210;SDS011;9231;48.852;9.882;2023-07-28T11:20:18;4.60;;;1.83;;
18210;SDS011;9231;48.852;9.882;2023-07-28T11:22:45;2.10;;;1.80;;
18210;SDS011;9231;48.852;9.882;2023-07-28T11:25:12;2.10;;;1.40;;
18210;SDS011;9231;48.852;9.882;2023-07-28T11:27:38;2.75;;;1.60;;
18210;SDS011;9231;48.852;9.882;2023-07-28T11:30:08;1.75;;;1.30;;
18210;SDS011;9231;48.852;9.882;2023-07-28T11:32:36;1.67;;;1.58;;
18210;SDS011;9231;48.852;9.882;2023-07-28T11:35:03;3.30;;;1.70;;
18210;SDS011;9231;48.852;9.882;2023-07-28T11:37:30;2.20;;;1.55;;
18210;SDS011;9231;48.852;9.882;2023-07-28T11:39:57;1.90;;;1.50;;
18210;SDS011;9231;48.852;9.882;2023-07-28T11:42:25;1.77;;;1.55;;
18210;SDS011;9231;48.852;9.882;2023-07-28T11:44:52;2.85;;;1.70;;
18210;SDS011;9231;48.852;9.882;2023-07-28T11:47:20;2.50;;;1.67;;
18210;SDS011;9231;48.852;9.882;2023-07-28T11:49:46;1.80;;;1.55;;
18210;SDS011;9231;48.852;9.882;2023-07-28T11:52:13;2.15;;;1.60;;
18210;SDS011;9231;48.852;9.882;2023-07-28T11:54:40;1.92;;;1.60;;
18210;SDS011;9231;48.852;9.882;2023-07-28T11:57:07;1.70;;;1.42;;
18210;SDS011;9231;48.852;9.882;2023-07-28T11:59:34;2.15;;;1.65;;
18210;SDS011;9231;48.852;9.882;2023-07-28T12:02:01;1.42;;;1.30;;
18210;SDS011;9231;48.852;9.882;2023-07-28T12:04:31;2.15;;;1.17;;
18210;SDS011;9231;48.852;9.882;2023-07-28T12:07:05;2.30;;;1.10;;
18210;SDS011;9231;48.852;9.882;2023-07-28T12:09:32;2.42;;;1.40;;
18210;SDS011;9231;48.852;9.882;2023-07-28T12:11:59;1.88;;;1.10;;
18210;SDS011;9231;48.852;9.882;2023-07-28T12:14:32;2.35;;;1.30;;
18210;SDS011;9231;48.852;9.882;2023-07-28T12:16:58;2.00;;;1.27;;
18210;SDS011;9231;48.852;9.882;2023-07-28T12:19:25;1.73;;;1.38;;
18210;SDS011;9231;48.852;9.882;2023-07-28T12:21:53;1.30;;;1.10;;
18210;SDS011;9231;48.852;9.882;2023-07-28T12:24:19;1.50;;;1.13;;
18210;SDS011;9231;48.852;9.882;2023-07-28T12:26:46;1.30;;;1.20;;
18210;SDS011;9231;48.852;9.882;2023-07-28T12:29:13;2.72;;;1.00;;
18210;SDS011;9231;48.852;9.882;2023-07-28T12:31:39;2.55;;;1.20;;
18210;SDS011;9231;48.852;9.882;2023-07-28T12:34:05;1.50;;;1.30;;
18210;SDS011;9231;48.852;9.882;2023-07-28T12:36:32;1.17;;;0.98;;
18210;SDS011;9231;48.852;9.882;2023-07-28T12:39:00;1.73;;;1.40;;
18210;SDS011;9231;48.852;9.882;2023-07-28T12:41:28;1.55;;;1.25;;
18210;SDS011;9231;48.852;9.882;2023-07-28T12:43:54;1.40;;;1.30;;
18210;SDS011;9231;48.852;9.882;2023-07-28T12:46:21;2.40;;;1.08;;
18210;SDS011;9231;48.852;9.882;2023-07-28T12:48:47;2.55;;;1.30;;
18210;SDS011;9231;48.852;9.882;2023-07-28T12:51:14;1.50;;;1.27;;
18210;SDS011;9231;48.852;9.882;2023-07-28T12:53:41;1.38;;;1.15;;
18210;SDS011;9231;48.852;9.882;2023-07-28T12:56:09;2.47;;;1.45;;
18210;SDS011;9231;48.852;9.882;2023-07-28T12:58:35;1.02;;;0.93;;
18210;SDS011;9231;48.852;9.882;2023-07-28T13:01:01;1.50;;;1.02;;
18210;SDS011;9231;48.852;9.882;2023-07-28T13:03:29;1.20;;;1.10;;
18210;SDS011;9231;48.852;9.882;2023-07-28T13:05:56;1.10;;;1.00;;
18210;SDS011;9231;48.852;9.882;2023-07-28T13:08:22;1.70;;;1.05;;
18210;SDS011;9231;48.852;9.882;2023-07-28T13:10:48;1.42;;;1.05;;
18210;SDS011;9231;48.852;9.882;2023-07-28T13:13:16;1.20;;;1.10;;
18210;SDS011;9231;48.852;9.882;2023-07-28T13:15:43;2.00;;;1.00;;
18210;SDS011;9231;48.852;9.882;2023-07-28T13:18:09;1.50;;;1.00;;
18210;SDS011;9231;48.852;9.882;2023-07-28T13:20:36;1.45;;;1.25;;
18210;SDS011;9231;48.852;9.882;2023-07-28T13:23:02;1.15;;;1.05;;
18210;SDS011;9231;48.852;9.882;2023-07-28T13:25:29;2.45;;;1.25;;
18210;SDS011;9231;48.852;9.882;2023-07-28T13:27:55;1.40;;;1.05;;
18210;SDS011;9231;48.852;9.882;2023-07-28T13:30:23;1.60;;;1.05;;
18210;SDS011;9231;48.852;9.882;2023-07-28T13:32:50;1.77;;;1.05;;
18210;SDS011;9231;48.852;9.882;2023-07-28T13:35:16;1.30;;;1.20;;
18210;SDS011;9231;48.852;9.882;2023-07-28T13:37:43;1.52;;;1.30;;
18210;SDS011;9231;48.852;9.882;2023-07-28T13:40:10;1.67;;;1.48;;
18210;SDS011;9231;48.852;9.882;2023-07-28T13:42:36;1.30;;;1.15;;
18210;SDS011;9231;48.852;9.882;2023-07-28T13:45:05;1.92;;;1.50;;
18210;SDS011;9231;48.852;9.882;2023-07-28T13:47:34;2.85;;;1.20;;
18210;SDS011;9231;48.852;9.882;2023-07-28T13:50:00;1.02;;;0.93;;
18210;SDS011;9231;48.852;9.882;2023-07-28T13:52:27;1.30;;;1.20;;
18210;SDS011;9231;48.852;9.882;2023-07-28T13:54:53;2.60;;;1.30;;
18210;SDS011;9231;48.852;9.882;2023-07-28T13:57:19;2.65;;;1.50;;
18210;SDS011;9231;48.852;9.882;2023-07-28T13:59:46;1.55;;;1.42;;
18210;SDS011;9231;48.852;9.882;2023-07-28T14:02:12;3.05;;;1.48;;
18210;SDS011;9231;48.852;9.882;2023-07-28T14:04:40;1.67;;;1.40;;
18210;SDS011;9231;48.852;9.882;2023-07-28T14:07:07;1.55;;;1.45;;
18210;SDS011;9231;48.852;9.882;2023-07-28T14:09:33;1.73;;;1.40;;
18210;SDS011;9231;48.852;9.882;2023-07-28T14:11:59;1.88;;;1.65;;
18210;SDS011;9231;48.852;9.882;2023-07-28T14:14:26;2.45;;;1.70;;
18210;SDS011;9231;48.852;9.882;2023-07-28T14:16:52;2.00;;;1.83;;
18210;SDS011;9231;48.852;9.882;2023-07-28T14:19:19;4.10;;;1.80;;
18210;SDS011;9231;48.852;9.882;2023-07-28T14:21:47;2.45;;;2.03;;
18210;SDS011;9231;48.852;9.882;2023-07-28T14:24:13;3.75;;;2.20;;
18210;SDS011;9231;48.852;9.882;2023-07-28T14:26:40;2.45;;;1.95;;
18210;SDS011;9231;48.852;9.882;2023-07-28T14:29:06;3.58;;;2.10;;
18210;SDS011;9231;48.852;9.882;2023-07-28T14:31:33;2.75;;;2.30;;
18210;SDS011;9231;48.852;9.882;2023-07-28T14:33:59;2.67;;;2.00;;
18210;SDS011;9231;48.852;9.882;2023-07-28T14:36:25;2.33;;;2.13;;
18210;SDS011;9231;48.852;9.882;2023-07-28T14:38:53;3.90;;;2.33;;
18210;SDS011;9231;48.852;9.882;2023-07-28T14:41:20;3.30;;;1.92;;
18210;SDS011;9231;48.852;9.882;2023-07-28T14:43:46;2.35;;;1.98;;
18210;SDS011;9231;48.852;9.882;2023-07-28T14:46:13;2.70;;;1.90;;
18210;SDS011;9231;48.852;9.882;2023-07-28T14:48:40;2.38;;;2.10;;
18210;SDS011;9231;48.852;9.882;2023-07-28T14:51:06;9.05;;;6.18;;
18210;SDS011;9231;48.852;9.882;2023-07-28T14:53:33;4.00;;;3.08;;
18210;SDS011;9231;48.852;9.882;2023-07-28T14:56:02;2.78;;;2.40;;
18210;SDS011;9231;48.852;9.882;2023-07-28T14:58:29;3.25;;;2.00;;
18210;SDS011;9231;48.852;9.882;2023-07-28T15:00:55;4.03;;;1.98;;